createdAt,value
2019-02-15T00:04:39.197Z,11.79
2019-02-15T00:09:48.139Z,12.06
2019-02-15T00:14:57.074Z,12.61
2019-02-15T00:20:06.018Z,12.93
2019-02-15T00:25:14.991Z,12.44
2019-02-15T00:30:23.917Z,12.94
2019-02-15T00:35:32.860Z,12.43
2019-02-15T00:40:41.816Z,13.06
2019-02-15T00:45:50.810Z,12.05
2019-02-15T00:50:59.730Z,12.74
2019-02-15T00:56:08.768Z,12.74
2019-02-15T01:01:17.759Z,11.79
2019-02-15T01:06:26.811Z,12.37
2019-02-15T01:11:35.766Z,12.68
2019-02-15T01:16:44.757Z,12.75
2019-02-15T01:21:53.714Z,12.74
2019-02-15T01:27:02.686Z,12.17
2019-02-15T01:32:11.623Z,12.12
2019-02-15T01:37:20.582Z,11.29
2019-02-15T01:42:29.562Z,11.92
2019-02-15T01:47:40.148Z,12.32
2019-02-15T01:52:47.086Z,10.59
2019-02-15T01:57:56.014Z,12.23
2019-02-15T02:03:05.054Z,12.31
2019-02-15T02:08:14.003Z,10.74
2019-02-15T02:13:22.998Z,10.55
2019-02-15T02:18:31.998Z,10.96
2019-02-15T02:23:40.959Z,11.15
2019-02-15T02:28:49.930Z,11.33
2019-02-15T02:33:58.936Z,11.95
2019-02-15T02:39:07.927Z,12.47
2019-02-15T02:44:16.878Z,13.04
2019-02-15T02:49:25.930Z,12.23
2019-02-15T02:54:34.936Z,12.19
2019-02-15T02:59:43.923Z,12.19
2019-02-15T03:04:52.870Z,11.67
2019-02-15T03:10:01.842Z,11.37
2019-02-15T03:15:10.840Z,12.23
2019-02-15T03:20:30.342Z,11.92
2019-02-15T03:25:28.363Z,12.31
2019-02-15T03:30:37.307Z,9.88
2019-02-15T03:35:46.318Z,8.99
2019-02-15T03:40:55.255Z,9.16
2019-02-15T03:46:04.365Z,10.79
2019-02-15T03:51:13.286Z,12.22
2019-02-15T03:56:22.295Z,11.50
2019-02-15T04:01:31.224Z,11.57
2019-02-15T04:06:40.368Z,11.75
2019-02-15T04:11:49.315Z,11.80
2019-02-15T04:16:58.273Z,10.68
2019-02-15T04:22:07.227Z,11.10
2019-02-15T04:27:16.206Z,11.20
2019-02-15T04:32:25.182Z,11.75
2019-02-15T04:37:34.114Z,11.42
2019-02-15T04:42:43.150Z,10.49
2019-02-15T04:47:52.087Z,8.95
2019-02-15T04:53:03.008Z,10.11
2019-02-15T04:58:09.560Z,10.60
2019-02-15T05:03:20.530Z,10.47
2019-02-15T05:08:20.038Z,9.94
2019-02-15T05:13:29.038Z,10.27
2019-02-15T05:18:38.018Z,10.95
2019-02-15T05:23:46.973Z,10.62
2019-02-15T05:28:55.983Z,12.31
2019-02-15T05:34:04.946Z,11.14
2019-02-15T05:39:13.931Z,13.33
2019-02-15T05:44:22.880Z,13.12
2019-02-15T05:49:32.057Z,13.07
2019-02-15T05:54:40.966Z,12.62
2019-02-15T05:59:49.984Z,12.84
2019-02-15T06:04:58.938Z,12.64
2019-02-15T06:10:07.906Z,13.18
2019-02-15T06:15:16.858Z,13.03
2019-02-15T06:20:25.861Z,13.20
2019-02-15T06:25:34.824Z,12.45
2019-02-15T06:30:43.774Z,12.36
2019-02-15T06:35:52.743Z,12.06
2019-02-15T06:41:01.694Z,11.99
2019-02-15T06:46:10.650Z,12.01
2019-02-15T06:51:19.738Z,11.34
2019-02-15T06:56:28.730Z,11.69
2019-02-15T07:01:37.654Z,11.54
2019-02-15T07:06:46.683Z,11.37
2019-02-15T07:11:55.648Z,11.64
2019-02-15T07:17:04.658Z,11.42
2019-02-15T07:22:13.615Z,11.45
2019-02-15T07:27:24.917Z,11.45
2019-02-15T07:32:23.850Z,11.01
2019-02-15T07:37:32.858Z,11.14
2019-02-15T07:42:41.782Z,11.26
2019-02-15T07:47:50.766Z,11.63
2019-02-15T07:52:59.749Z,10.75
2019-02-15T07:58:08.718Z,11.01
2019-02-15T08:03:17.736Z,11.81
2019-02-15T08:08:26.678Z,11.35
2019-02-15T08:13:35.646Z,12.44
2019-02-15T08:18:44.597Z,11.77
2019-02-15T08:23:53.562Z,11.67
2019-02-15T08:29:02.507Z,10.86
2019-02-15T08:34:11.485Z,11.24
2019-02-15T08:39:20.470Z,10.38
2019-02-15T08:44:29.478Z,11.08
2019-02-15T08:49:38.450Z,10.66
2019-02-15T08:54:47.386Z,10.23
2019-02-15T08:59:56.363Z,10.37
2019-02-15T09:05:05.330Z,10.44
2019-02-15T09:10:14.355Z,11.06
2019-02-15T09:15:23.280Z,10.30
2019-02-15T09:20:32.265Z,10.25
2019-02-15T09:25:41.242Z,9.46
2019-02-15T09:30:50.174Z,9.23
2019-02-15T09:35:59.194Z,9.11
2019-02-15T09:41:08.138Z,9.16
2019-02-15T09:46:20.014Z,8.69
2019-02-15T09:51:25.588Z,8.32
2019-02-15T09:56:34.591Z,8.18
2019-02-15T10:01:43.530Z,7.62
2019-02-15T10:06:52.469Z,7.99
2019-02-15T10:12:01.483Z,7.68
2019-02-15T10:17:10.438Z,7.29
2019-02-15T10:22:19.466Z,6.68
2019-02-15T10:27:28.393Z,6.57
2019-02-15T10:32:37.452Z,6.08
2019-02-15T10:37:46.398Z,6.43
2019-02-15T10:42:55.362Z,7.09
2019-02-15T10:48:04.321Z,7.69
2019-02-15T10:53:13.279Z,7.39
2019-02-15T10:58:22.242Z,6.50
2019-02-15T11:03:31.194Z,6.70
2019-02-15T11:08:40.206Z,7.19
2019-02-15T11:13:49.149Z,7.01
2019-02-15T11:18:58.117Z,6.43
2019-02-15T11:24:07.054Z,7.22
2019-02-15T11:29:16.133Z,7.03
2019-02-15T11:34:25.092Z,6.59
2019-02-15T11:39:34.082Z,6.76
2019-02-15T11:44:43.044Z,6.45
2019-02-15T11:49:52.028Z,6.20
2019-02-15T11:55:01.069Z,6.27
2019-02-15T12:00:14.349Z,6.23
2019-02-15T12:05:18.507Z,6.37
2019-02-15T12:10:27.442Z,6.03
2019-02-15T12:15:36.475Z,6.28
2019-02-15T12:20:45.403Z,6.22
2019-02-15T12:25:54.354Z,6.67
2019-02-15T12:31:03.338Z,5.94
2019-02-15T12:36:12.253Z,5.65
2019-02-15T12:41:21.226Z,6.53
2019-02-15T12:46:30.174Z,6.36
2019-02-15T12:51:39.166Z,6.56
2019-02-15T12:56:48.124Z,6.58
2019-02-15T13:01:57.122Z,6.49
2019-02-15T13:07:06.062Z,6.17
2019-02-15T13:12:15.121Z,6.84
2019-02-15T13:17:25.046Z,6.55
2019-02-15T13:22:32.654Z,6.38
2019-02-15T13:27:41.984Z,6.78
2019-02-15T13:32:50.075Z,6.46
2019-02-15T13:37:59.041Z,7.21
2019-02-15T13:43:07.983Z,6.68
2019-02-15T13:48:16.950Z,7.00
2019-02-15T13:53:25.898Z,6.86
2019-02-15T13:58:34.898Z,6.76
2019-02-15T14:03:43.835Z,7.12
2019-02-15T14:08:52.792Z,6.43
2019-02-15T14:14:01.736Z,7.03
2019-02-15T14:19:10.683Z,6.79
2019-02-15T14:24:19.705Z,6.75
2019-02-15T14:29:28.926Z,6.74
2019-02-15T14:34:37.867Z,6.48
2019-02-15T14:39:46.974Z,6.05
2019-02-15T14:44:55.903Z,6.98
2019-02-15T14:50:04.910Z,6.47
2019-02-15T14:55:13.848Z,5.93
2019-02-15T15:00:22.794Z,6.37
2019-02-15T15:05:31.742Z,6.61
2019-02-15T15:10:40.762Z,6.69
2019-02-15T15:15:49.690Z,7.39
2019-02-15T15:20:58.734Z,6.99
2019-02-15T15:26:11.723Z,6.77
2019-02-15T15:31:16.167Z,6.20
2019-02-15T15:36:25.150Z,6.48
2019-02-15T15:41:34.142Z,6.04
2019-02-15T15:46:43.102Z,5.64
2019-02-15T15:51:52.106Z,6.27
2019-02-15T15:57:01.043Z,5.58
2019-02-15T16:02:10.059Z,5.43
2019-02-15T16:07:18.968Z,5.42
2019-02-15T16:12:27.951Z,5.31
2019-02-15T16:17:36.869Z,5.07
2019-02-15T16:22:45.871Z,5.36
2019-02-15T16:27:54.874Z,5.62
2019-02-15T16:33:03.916Z,5.65
2019-02-15T16:38:18.927Z,5.51
2019-02-15T16:43:17.927Z,5.42
2019-02-15T16:48:26.858Z,5.26
2019-02-15T16:53:35.858Z,5.80
2019-02-15T16:58:44.793Z,6.31
2019-02-15T17:03:53.878Z,6.29
2019-02-15T17:09:02.850Z,6.16
2019-02-15T17:14:11.887Z,5.82
2019-02-15T17:19:20.842Z,5.91
2019-02-15T17:24:29.822Z,5.57
2019-02-15T17:29:38.784Z,5.53
2019-02-15T17:34:47.835Z,6.64
2019-02-15T17:39:56.802Z,7.15
2019-02-15T17:45:05.770Z,7.98
2019-02-15T17:50:14.853Z,8.29
2019-02-15T17:55:23.812Z,7.78
2019-02-15T18:00:32.773Z,7.14
2019-02-15T18:05:41.838Z,7.21
2019-02-15T18:10:50.864Z,7.68
2019-02-15T18:15:59.902Z,7.55
2019-02-15T18:21:08.885Z,7.47
2019-02-15T18:26:17.873Z,7.03
2019-02-15T18:31:26.822Z,7.03
2019-02-15T18:36:35.804Z,5.50
2019-02-15T18:41:44.754Z,5.66
2019-02-15T18:46:53.805Z,5.28
2019-02-15T18:52:02.752Z,5.96
2019-02-15T18:57:11.730Z,6.78
2019-02-15T19:02:20.710Z,7.08
2019-02-15T19:07:29.727Z,7.25
2019-02-15T19:12:38.716Z,7.50
2019-02-15T19:17:47.787Z,7.59
2019-02-15T19:22:56.727Z,8.10
2019-02-15T19:28:05.742Z,7.84
2019-02-15T19:33:14.708Z,7.45
2019-02-15T19:38:23.763Z,6.36
2019-02-15T19:43:32.719Z,5.75
2019-02-15T19:48:41.717Z,6.39
2019-02-15T19:53:50.655Z,7.66
2019-02-15T19:58:59.650Z,7.80
2019-02-15T20:04:08.643Z,8.33
2019-02-15T20:09:17.622Z,7.85
2019-02-15T20:14:26.574Z,7.26
2019-02-15T20:19:35.566Z,6.89
2019-02-15T20:24:44.535Z,7.75
2019-02-15T20:29:53.552Z,7.52
2019-02-15T20:35:02.498Z,6.94
2019-02-15T20:40:11.551Z,8.34
2019-02-15T20:45:20.499Z,7.21
2019-02-15T20:50:29.514Z,8.30
2019-02-15T20:55:38.482Z,8.18
2019-02-15T21:00:47.466Z,8.65
2019-02-15T21:05:56.418Z,9.47
2019-02-15T21:11:05.386Z,9.85
2019-02-15T21:16:14.368Z,11.76
2019-02-15T21:21:23.377Z,12.15
2019-02-15T21:26:32.318Z,13.41
2019-02-15T21:31:41.395Z,14.64
2019-02-15T21:36:50.606Z,14.03
2019-02-15T21:41:59.398Z,16.49
2019-02-15T21:47:08.332Z,16.21
2019-02-15T21:52:17.346Z,16.44
2019-02-15T21:57:26.311Z,15.82
2019-02-15T22:02:35.319Z,16.11
2019-02-15T22:07:44.238Z,16.30
2019-02-15T22:12:53.215Z,16.22
2019-02-15T22:18:02.247Z,15.42
2019-02-15T22:23:11.306Z,16.54
2019-02-15T22:28:20.255Z,16.13
2019-02-15T22:33:29.210Z,15.12
2019-02-15T22:38:38.158Z,15.28
2019-02-15T22:43:47.168Z,16.66
2019-02-15T22:48:56.113Z,16.47
2019-02-15T22:54:05.130Z,16.69
2019-02-15T22:59:14.123Z,17.36
2019-02-15T23:04:23.158Z,16.17
2019-02-15T23:09:32.099Z,15.72
2019-02-15T23:14:41.126Z,15.37
2019-02-15T23:19:50.063Z,15.93
2019-02-15T23:24:59.103Z,15.85
2019-02-15T23:30:08.008Z,16.38
2019-02-15T23:35:16.986Z,14.82
2019-02-15T23:40:25.986Z,15.97
2019-02-15T23:45:34.954Z,15.94
2019-02-15T23:50:43.950Z,16.25
2019-02-15T23:55:52.875Z,15.01
